Time;durP1;ratioP1;P1;durP2;ratioP2;P2;SDS_P1;SDS_P2;PMS_P1;PMS_P2;Temp;Humidity;BMP_temperature;BMP_pressure;BME280_temperature;BME280_humidity;BME280_pressure;Samples;Min_cycle;Max_cycle;Signal;HPM_P1;HPM_P2
2024/03/03 00:00:06;;;;;;;15.97;11.30;;;7.80;99.90;;;;;;468115;251;28555;-73
2024/03/03 00:02:07;;;;;;;17.20;11.90;;;7.80;99.90;;;;;;476968;249;27869;-73
2024/03/03 00:04:08;;;;;;;13.53;10.00;;;7.80;99.90;;;;;;467980;251;27898;-73
2024/03/03 00:06:09;;;;;;;14.40;10.03;;;7.80;99.90;;;;;;477001;249;27658;-73
2024/03/03 00:08:10;;;;;;;14.63;9.90;;;7.70;99.90;;;;;;468083;251;27650;-74
2024/03/03 00:10:11;;;;;;;16.87;11.10;;;7.60;99.90;;;;;;477011;249;27755;-73
2024/03/03 00:12:13;;;;;;;20.20;13.57;;;7.60;99.90;;;;;;468091;251;27952;-73
2024/03/03 00:14:14;;;;;;;18.50;13.30;;;7.60;99.90;;;;;;477017;249;28478;-74
2024/03/03 00:16:15;;;;;;;23.47;15.40;;;7.70;99.90;;;;;;468153;251;28330;-74
2024/03/03 00:18:16;;;;;;;19.50;11.83;;;7.70;99.90;;;;;;476972;249;28362;-73
2024/03/03 00:20:18;;;;;;;22.17;14.67;;;7.70;99.90;;;;;;468133;251;27418;-73
2024/03/03 00:22:19;;;;;;;21.20;14.00;;;7.70;99.90;;;;;;476991;249;27899;-73
2024/03/03 00:24:20;;;;;;;17.10;11.40;;;7.70;99.90;;;;;;468135;251;27750;-74
2024/03/03 00:26:21;;;;;;;15.90;10.63;;;7.70;99.90;;;;;;477020;249;27899;-73
2024/03/03 00:28:23;;;;;;;16.17;10.33;;;7.80;99.90;;;;;;468099;251;28101;-73
2024/03/03 00:30:24;;;;;;;15.20;10.83;;;7.70;99.90;;;;;;476969;249;27775;-73
2024/03/03 00:32:27;;;;;;;14.73;9.57;;;7.70;99.90;;;;;;468112;251;28388;-73
2024/03/03 00:34:27;;;;;;;13.50;9.70;;;7.60;99.90;;;;;;476920;249;28285;-74
2024/03/03 00:36:28;;;;;;;19.10;11.60;;;7.50;99.90;;;;;;468144;251;28512;-73
2024/03/03 00:38:30;;;;;;;18.67;12.10;;;7.50;99.90;;;;;;476962;249;27985;-73
2024/03/03 00:40:32;;;;;;;16.97;11.20;;;7.50;99.90;;;;;;468104;251;28097;-73
2024/03/03 00:42:32;;;;;;;15.37;11.13;;;7.40;99.90;;;;;;476941;249;27978;-73
2024/03/03 00:44:33;;;;;;;14.20;9.37;;;7.40;99.90;;;;;;468143;251;27656;-74
2024/03/03 00:46:34;;;;;;;24.53;14.37;;;7.30;99.90;;;;;;476982;249;27766;-73
2024/03/03 00:48:35;;;;;;;19.80;12.57;;;7.30;99.90;;;;;;468070;251;28146;-71
2024/03/03 00:50:37;;;;;;;19.20;13.30;;;7.30;99.90;;;;;;477031;249;27520;-72
2024/03/03 00:52:38;;;;;;;18.17;11.57;;;7.30;99.90;;;;;;468063;251;28486;-71
2024/03/03 00:54:39;;;;;;;18.67;11.10;;;7.20;99.90;;;;;;476980;249;28348;-74
2024/03/03 00:56:41;;;;;;;16.87;11.30;;;7.20;99.90;;;;;;468131;251;28354;-71
2024/03/03 00:58:42;;;;;;;15.97;11.33;;;7.20;99.90;;;;;;476916;249;27797;-75
2024/03/03 01:00:43;;;;;;;16.13;10.87;;;7.20;99.90;;;;;;468148;251;27964;-75
2024/03/03 01:02:44;;;;;;;16.73;10.20;;;7.10;99.90;;;;;;477020;249;27841;-73
2024/03/03 01:04:45;;;;;;;16.60;10.93;;;7.10;99.90;;;;;;468130;251;28067;-71
2024/03/03 01:06:47;;;;;;;13.83;9.63;;;7.00;99.90;;;;;;476982;249;27846;-70
2024/03/03 01:08:48;;;;;;;15.83;10.33;;;7.00;99.90;;;;;;468098;251;27786;-71
2024/03/03 01:10:49;;;;;;;14.80;9.63;;;6.90;99.90;;;;;;477020;249;28476;-71
2024/03/03 01:12:50;;;;;;;13.53;9.57;;;6.80;99.90;;;;;;468113;251;27991;-71
2024/03/03 01:14:52;;;;;;;16.93;10.60;;;6.70;99.90;;;;;;476966;249;28498;-74
2024/03/03 01:16:53;;;;;;;13.47;9.87;;;6.70;99.90;;;;;;468137;251;27688;-73
2024/03/03 01:18:54;;;;;;;15.37;9.67;;;6.70;99.90;;;;;;476957;249;28087;-72
2024/03/03 01:20:55;;;;;;;14.77;9.67;;;6.70;99.90;;;;;;468140;251;27796;-73
2024/03/03 01:22:57;;;;;;;18.60;10.07;;;6.70;99.90;;;;;;476993;249;28738;-72
2024/03/03 01:24:58;;;;;;;16.00;9.70;;;6.80;99.90;;;;;;468078;251;27490;-72
2024/03/03 01:27:00;;;;;;;16.93;11.90;;;6.70;99.90;;;;;;477040;249;27582;-73
2024/03/03 01:29:00;;;;;;;15.20;10.07;;;6.80;99.90;;;;;;468044;254;28322;-72
2024/03/03 01:31:02;;;;;;;14.90;10.57;;;6.90;99.90;;;;;;477010;249;28265;-73
2024/03/03 01:33:03;;;;;;;12.40;9.50;;;6.90;99.90;;;;;;468096;251;28913;-73
2024/03/03 01:35:04;;;;;;;14.30;10.07;;;6.90;99.90;;;;;;477039;249;27900;-73
2024/03/03 01:37:05;;;;;;;14.47;9.97;;;6.90;99.90;;;;;;468121;251;27982;-73
2024/03/03 01:39:07;;;;;;;15.00;9.73;;;7.00;99.90;;;;;;476989;249;27513;-71
2024/03/03 01:41:08;;;;;;;16.60;11.10;;;7.00;99.90;;;;;;468141;251;27810;-72
2024/03/03 01:43:09;;;;;;;15.37;10.87;;;7.00;99.90;;;;;;477005;249;27925;-71
2024/03/03 01:45:10;;;;;;;19.47;11.87;;;7.00;99.90;;;;;;468131;251;27967;-74
2024/03/03 01:47:13;;;;;;;17.00;11.20;;;7.00;99.90;;;;;;477008;249;27936;-71
2024/03/03 01:49:13;;;;;;;20.50;13.17;;;7.00;99.90;;;;;;468077;254;28336;-71
2024/03/03 01:51:14;;;;;;;25.40;13.83;;;7.00;99.90;;;;;;477041;249;28028;-71
2024/03/03 01:53:15;;;;;;;16.13;11.60;;;6.90;99.90;;;;;;468167;251;27951;-73
2024/03/03 01:55:17;;;;;;;18.80;10.93;;;6.70;99.90;;;;;;477033;249;27879;-72
2024/03/03 01:57:18;;;;;;;16.70;11.27;;;6.60;99.90;;;;;;468104;251;27965;-72
2024/03/03 01:59:19;;;;;;;13.50;10.00;;;6.70;99.90;;;;;;476997;249;28774;-73
2024/03/03 02:01:21;;;;;;;20.53;12.40;;;6.70;99.90;;;;;;468146;251;27910;-74
2024/03/03 02:03:22;;;;;;;14.60;10.20;;;6.80;99.90;;;;;;477024;249;27932;-72
2024/03/03 02:05:23;;;;;;;15.50;10.80;;;6.80;99.90;;;;;;468089;254;27786;-74
2024/03/03 02:07:24;;;;;;;17.37;11.77;;;6.80;99.90;;;;;;476972;249;28467;-71
2024/03/03 02:09:25;;;;;;;20.70;11.80;;;6.80;99.90;;;;;;468104;251;29253;-72
2024/03/03 02:11:27;;;;;;;17.90;11.73;;;6.70;99.90;;;;;;477060;249;27660;-71
2024/03/03 02:13:29;;;;;;;19.53;12.93;;;6.80;99.90;;;;;;468157;251;27952;-74
2024/03/03 02:15:29;;;;;;;15.60;10.60;;;6.80;99.90;;;;;;476994;249;27884;-73
2024/03/03 02:17:30;;;;;;;18.53;12.17;;;6.80;99.90;;;;;;468079;251;27997;-71
2024/03/03 02:19:32;;;;;;;16.47;11.50;;;6.70;99.90;;;;;;477049;249;28168;-74
2024/03/03 02:21:33;;;;;;;15.43;10.00;;;6.60;99.90;;;;;;468155;251;27683;-73
2024/03/03 02:23:34;;;;;;;13.77;11.07;;;6.60;99.90;;;;;;477025;249;27833;-71
2024/03/03 02:25:36;;;;;;;18.60;12.03;;;6.60;99.90;;;;;;468105;251;28434;-71
2024/03/03 02:27:37;;;;;;;19.07;12.33;;;6.60;99.90;;;;;;476949;249;28602;-72
2024/03/03 02:29:38;;;;;;;16.10;10.67;;;6.60;99.90;;;;;;468168;251;28374;-72
2024/03/03 02:31:39;;;;;;;19.90;13.70;;;6.60;99.90;;;;;;476999;249;27624;-71
2024/03/03 02:33:41;;;;;;;18.07;12.53;;;6.50;99.90;;;;;;468140;251;28053;-72
2024/03/03 02:35:42;;;;;;;20.87;13.43;;;6.50;99.90;;;;;;476974;249;27409;-73
2024/03/03 02:37:43;;;;;;;20.37;12.67;;;6.50;99.90;;;;;;468136;251;27807;-73
2024/03/03 02:39:45;;;;;;;35.33;19.83;;;6.50;99.90;;;;;;477054;249;28153;-72
2024/03/03 02:41:46;;;;;;;28.07;16.87;;;6.60;99.90;;;;;;468145;251;28158;-72
2024/03/03 02:43:47;;;;;;;30.30;17.60;;;6.80;99.90;;;;;;476970;249;28452;-74
2024/03/03 02:45:48;;;;;;;23.23;14.73;;;6.80;99.90;;;;;;468148;251;28487;-73
2024/03/03 02:47:53;;;;;;;22.93;13.13;;;6.80;99.90;;;;;;476997;249;28477;-71
2024/03/03 02:49:51;;;;;;;22.30;14.93;;;6.80;99.90;;;;;;467922;254;28089;-72
2024/03/03 02:51:54;;;;;;;25.40;14.70;;;6.80;99.90;;;;;;477016;249;27861;-72
2024/03/03 02:53:53;;;;;;;26.90;15.73;;;6.80;99.90;;;;;;468075;254;27975;-73
2024/03/03 02:55:54;;;;;;;19.50;12.87;;;6.80;99.90;;;;;;477042;249;27850;-75
2024/03/03 02:57:56;;;;;;;22.23;13.10;;;6.80;99.90;;;;;;468074;251;27732;-72
2024/03/03 02:59:57;;;;;;;18.47;12.67;;;6.80;99.90;;;;;;477005;249;27963;-73
2024/03/03 03:01:58;;;;;;;18.60;11.73;;;6.60;99.90;;;;;;468116;251;28469;-71
2024/03/03 03:03:59;;;;;;;22.07;13.40;;;6.50;99.90;;;;;;477024;249;28366;-72
2024/03/03 03:06:01;;;;;;;15.10;10.50;;;6.50;99.90;;;;;;468132;251;28498;-74
2024/03/03 03:08:02;;;;;;;18.37;11.73;;;6.50;99.90;;;;;;476967;249;27693;-72
2024/03/03 03:10:03;;;;;;;17.60;12.50;;;6.50;99.90;;;;;;468029;254;27752;-71
2024/03/03 03:12:04;;;;;;;16.27;9.90;;;6.40;99.90;;;;;;477008;249;27923;-71
2024/03/03 03:14:06;;;;;;;24.93;14.73;;;6.20;99.90;;;;;;468170;251;27932;-74
2024/03/03 03:16:07;;;;;;;19.60;13.10;;;6.20;99.90;;;;;;477037;249;28011;-74
2024/03/03 03:18:08;;;;;;;19.07;12.27;;;6.20;99.90;;;;;;468092;251;27926;-73
2024/03/03 03:20:09;;;;;;;19.03;12.70;;;6.20;99.90;;;;;;477002;249;28402;-71
2024/03/03 03:22:11;;;;;;;17.67;11.47;;;6.20;99.90;;;;;;468185;251;28292;-73
2024/03/03 03:24:12;;;;;;;17.97;11.13;;;6.20;99.90;;;;;;477025;249;28226;-71
2024/03/03 03:26:13;;;;;;;19.23;12.43;;;6.20;99.90;;;;;;468069;251;28902;-71
2024/03/03 03:28:15;;;;;;;19.40;11.30;;;6.20;99.90;;;;;;476898;249;28012;-72
2024/03/03 03:30:16;;;;;;;20.73;12.40;;;6.20;99.90;;;;;;468145;251;27992;-73
2024/03/03 03:32:17;;;;;;;23.35;14.60;;;6.20;99.90;;;;;;476987;249;28645;-74
2024/03/03 03:34:18;;;;;;;23.00;12.77;;;6.20;99.90;;;;;;468084;251;27541;-74
2024/03/03 03:36:19;;;;;;;20.63;13.30;;;6.20;99.90;;;;;;476932;249;27964;-73
2024/03/03 03:38:21;;;;;;;15.63;10.80;;;6.20;99.90;;;;;;468055;251;31098;-73
2024/03/03 03:40:24;;;;;;;17.20;11.73;;;6.20;99.90;;;;;;477016;249;27891;-73
2024/03/03 03:42:23;;;;;;;19.07;12.60;;;6.20;99.90;;;;;;468044;254;28068;-73
2024/03/03 03:44:24;;;;;;;20.67;13.97;;;6.30;99.90;;;;;;476971;249;28346;-73
2024/03/03 03:46:26;;;;;;;24.13;13.70;;;6.40;99.90;;;;;;468100;251;27756;-73
2024/03/03 03:48:27;;;;;;;18.23;12.83;;;6.40;99.90;;;;;;476965;249;28309;-72
2024/03/03 03:50:28;;;;;;;19.07;12.70;;;6.50;99.90;;;;;;468150;251;28485;-72
2024/03/03 03:52:29;;;;;;;19.73;12.50;;;6.50;99.90;;;;;;477002;249;28568;-72
2024/03/03 03:54:31;;;;;;;17.20;10.83;;;6.50;99.90;;;;;;468108;251;29237;-72
2024/03/03 03:56:32;;;;;;;15.00;9.67;;;6.20;99.90;;;;;;477011;249;28376;-73
2024/03/03 03:58:33;;;;;;;20.17;10.98;;;6.10;99.90;;;;;;468117;251;28019;-73
2024/03/03 04:00:35;;;;;;;16.73;10.50;;;6.10;99.90;;;;;;477031;249;27399;-72
2024/03/03 04:02:36;;;;;;;15.40;10.47;;;6.00;99.90;;;;;;468138;251;28832;-72
2024/03/03 04:04:37;;;;;;;13.43;8.80;;;6.00;99.90;;;;;;477016;249;27624;-72
2024/03/03 04:06:38;;;;;;;12.50;8.67;;;6.00;99.90;;;;;;468134;251;27908;-73
2024/03/03 04:08:40;;;;;;;12.70;8.13;;;5.90;99.90;;;;;;476853;249;28553;-72
2024/03/03 04:10:41;;;;;;;16.90;11.03;;;5.90;99.90;;;;;;468148;251;27429;-71
2024/03/03 04:12:42;;;;;;;15.57;10.20;;;6.00;99.90;;;;;;477010;249;28805;-72
2024/03/03 04:14:44;;;;;;;15.87;10.23;;;6.00;99.90;;;;;;468162;251;28837;-72
2024/03/03 04:16:45;;;;;;;14.80;9.60;;;6.00;99.90;;;;;;477044;249;27742;-72
2024/03/03 04:18:46;;;;;;;13.77;9.70;;;6.00;99.90;;;;;;468095;251;27687;-72
2024/03/03 04:20:47;;;;;;;12.07;8.50;;;6.00;99.90;;;;;;476995;249;28557;-72
2024/03/03 04:22:48;;;;;;;17.63;8.90;;;6.00;99.90;;;;;;467930;251;28016;-74
2024/03/03 04:24:50;;;;;;;21.35;13.02;;;6.00;99.90;;;;;;477011;249;29287;-75
2024/03/03 04:26:51;;;;;;;19.93;11.67;;;5.90;99.90;;;;;;468132;251;27987;-74
2024/03/03 04:28:52;;;;;;;19.10;12.40;;;5.90;99.90;;;;;;476987;249;28826;-71
2024/03/03 04:30:53;;;;;;;16.27;9.35;;;5.90;99.90;;;;;;468123;251;28134;-71
2024/03/03 04:32:55;;;;;;;16.90;10.10;;;6.00;99.90;;;;;;477013;249;27502;-73
2024/03/03 04:34:56;;;;;;;15.33;9.73;;;6.00;99.90;;;;;;468151;251;28197;-71
2024/03/03 04:36:57;;;;;;;21.70;13.53;;;6.00;99.90;;;;;;476983;249;28104;-71
2024/03/03 04:38:58;;;;;;;24.20;15.50;;;6.00;99.90;;;;;;468101;251;28545;-74
2024/03/03 04:41:00;;;;;;;23.20;14.00;;;6.10;99.90;;;;;;477035;249;28861;-75
2024/03/03 04:43:01;;;;;;;27.13;13.53;;;6.10;99.90;;;;;;468145;251;28262;-73
2024/03/03 04:45:03;;;;;;;19.37;11.00;;;6.00;99.90;;;;;;477019;249;28868;-74
2024/03/03 04:47:09;;;;;;;29.27;18.13;;;6.00;99.90;;;;;;468050;251;28794;-77
2024/03/03 04:49:05;;;;;;;35.70;20.23;;;6.10;99.90;;;;;;476712;249;28487;-73
2024/03/03 04:51:09;;;;;;;34.33;19.00;;;6.10;99.90;;;;;;468194;251;27502;-74
2024/03/03 04:53:10;;;;;;;32.87;18.57;;;6.20;99.90;;;;;;476931;249;27916;-71
2024/03/03 04:55:12;;;;;;;27.53;16.57;;;6.20;99.90;;;;;;468122;251;27995;-74
2024/03/03 04:57:13;;;;;;;32.60;18.87;;;6.20;99.90;;;;;;477001;249;28884;-74
2024/03/03 04:59:14;;;;;;;31.20;18.20;;;6.20;99.90;;;;;;468189;251;28831;-72
2024/03/03 05:01:15;;;;;;;31.83;18.90;;;6.10;99.90;;;;;;477056;249;28457;-71
2024/03/03 05:03:17;;;;;;;36.90;19.50;;;6.20;99.90;;;;;;468132;251;29319;-73
2024/03/03 05:05:18;;;;;;;38.97;20.77;;;6.20;99.90;;;;;;477037;249;29354;-74
2024/03/03 05:07:19;;;;;;;34.87;19.20;;;6.20;99.90;;;;;;468116;251;29271;-74
2024/03/03 05:09:20;;;;;;;34.13;19.07;;;6.20;99.90;;;;;;477024;249;28126;-74
2024/03/03 05:11:22;;;;;;;38.55;22.00;;;6.20;99.90;;;;;;468155;251;27589;-71
2024/03/03 05:13:23;;;;;;;39.13;19.93;;;6.20;99.90;;;;;;476986;249;27442;-71
2024/03/03 05:15:24;;;;;;;34.30;19.70;;;6.20;99.90;;;;;;468151;251;29285;-72
2024/03/03 05:17:25;;;;;;;30.13;17.57;;;6.30;99.90;;;;;;476976;249;27957;-71
2024/03/03 05:19:27;;;;;;;29.83;17.37;;;6.20;99.90;;;;;;468137;251;28207;-71
2024/03/03 05:21:28;;;;;;;29.93;17.63;;;6.20;99.90;;;;;;476973;249;29010;-71
2024/03/03 05:23:29;;;;;;;27.33;15.57;;;6.20;99.90;;;;;;468105;251;29404;-72
2024/03/03 05:25:30;;;;;;;29.65;16.30;;;6.20;99.90;;;;;;477014;249;27995;-72
2024/03/03 05:27:32;;;;;;;29.70;18.42;;;6.10;99.90;;;;;;468086;251;27426;-71
2024/03/03 05:29:33;;;;;;;35.17;20.20;;;6.20;99.90;;;;;;477006;249;27553;-71
2024/03/03 05:31:34;;;;;;;38.73;22.73;;;6.20;99.90;;;;;;468104;251;28899;-73
2024/03/03 05:33:35;;;;;;;33.10;17.40;;;6.20;99.90;;;;;;477014;249;27975;-73
2024/03/03 05:35:37;;;;;;;39.85;21.58;;;6.20;99.90;;;;;;468128;251;28321;-73
2024/03/03 05:37:38;;;;;;;41.70;21.80;;;6.20;99.90;;;;;;476905;249;27413;-73
2024/03/03 05:39:40;;;;;;;37.60;20.73;;;6.20;99.90;;;;;;468069;251;28833;-73
2024/03/03 05:41:41;;;;;;;36.70;20.40;;;6.20;99.90;;;;;;477008;249;28928;-73
2024/03/03 05:43:42;;;;;;;33.27;19.37;;;6.30;99.90;;;;;;468129;251;28023;-73
2024/03/03 05:45:43;;;;;;;51.07;26.70;;;6.30;99.90;;;;;;477002;249;28286;-73
2024/03/03 05:47:44;;;;;;;37.50;21.03;;;6.40;99.90;;;;;;468079;251;27773;-73
2024/03/03 05:49:46;;;;;;;32.33;19.40;;;6.50;99.90;;;;;;477000;249;28351;-73
2024/03/03 05:51:47;;;;;;;30.07;16.87;;;6.40;99.90;;;;;;468169;251;28442;-73
2024/03/03 05:53:48;;;;;;;29.00;16.50;;;6.30;99.90;;;;;;476992;249;28440;-73
2024/03/03 05:55:49;;;;;;;26.57;15.70;;;6.20;99.90;;;;;;468109;248;27945;-73
2024/03/03 05:57:51;;;;;;;26.80;15.40;;;6.10;99.90;;;;;;476909;249;27906;-73
2024/03/03 05:59:52;;;;;;;30.55;15.88;;;6.10;99.90;;;;;;468137;251;28864;-73
2024/03/03 06:01:54;;;;;;;23.33;13.70;;;6.00;99.90;;;;;;477017;249;27474;-74
2024/03/03 06:03:54;;;;;;;27.67;16.73;;;6.00;99.90;;;;;;468109;251;27647;-73
2024/03/03 06:05:56;;;;;;;23.90;14.17;;;6.00;99.90;;;;;;476997;249;28156;-73
2024/03/03 06:07:57;;;;;;;26.23;16.33;;;6.10;99.90;;;;;;468074;251;28730;-73
2024/03/03 06:09:58;;;;;;;22.93;14.73;;;6.10;99.90;;;;;;477005;249;27490;-73
2024/03/03 06:12:00;;;;;;;23.10;13.03;;;6.00;99.90;;;;;;468123;251;28176;-73
2024/03/03 06:14:01;;;;;;;26.57;15.47;;;6.10;99.90;;;;;;476977;249;28388;-72
2024/03/03 06:16:02;;;;;;;30.73;16.47;;;6.10;99.90;;;;;;468120;251;28888;-72
2024/03/03 06:18:04;;;;;;;24.00;13.50;;;5.90;99.90;;;;;;476980;249;27916;-75
2024/03/03 06:20:05;;;;;;;21.40;13.27;;;5.90;99.90;;;;;;468094;251;29194;-73
2024/03/03 06:22:08;;;;;;;22.48;13.73;;;5.90;99.90;;;;;;476944;249;28386;-73
2024/03/03 06:24:07;;;;;;;25.88;15.27;;;5.90;99.90;;;;;;467875;254;27472;-71
2024/03/03 06:26:08;;;;;;;23.90;14.93;;;6.00;99.90;;;;;;477023;249;27426;-71
2024/03/03 06:28:09;;;;;;;25.08;14.57;;;6.10;99.90;;;;;;468091;251;27953;-72
2024/03/03 06:30:11;;;;;;;22.62;14.02;;;6.10;99.90;;;;;;477021;249;27418;-73
2024/03/03 06:32:12;;;;;;;24.17;13.63;;;6.20;99.90;;;;;;468088;251;28045;-71
2024/03/03 06:34:13;;;;;;;28.30;15.40;;;6.20;99.90;;;;;;477016;249;28322;-75
2024/03/03 06:36:14;;;;;;;31.05;19.48;;;6.30;99.90;;;;;;468114;251;28099;-73
2024/03/03 06:38:16;;;;;;;33.47;20.33;;;6.40;99.90;;;;;;476959;249;27477;-71
2024/03/03 06:40:17;;;;;;;39.67;21.00;;;6.50;99.90;;;;;;468118;251;27470;-73
2024/03/03 06:42:19;;;;;;;27.37;17.17;;;6.60;99.90;;;;;;476996;249;28814;-72
2024/03/03 06:44:19;;;;;;;27.07;15.27;;;6.40;99.90;;;;;;468095;251;27980;-72
2024/03/03 06:46:21;;;;;;;19.70;12.25;;;6.30;99.90;;;;;;476991;249;28544;-71
2024/03/03 06:48:22;;;;;;;20.07;13.13;;;6.20;99.90;;;;;;468086;251;27481;-71
2024/03/03 06:50:23;;;;;;;28.87;17.60;;;6.20;99.90;;;;;;476973;249;27932;-71
2024/03/03 06:52:25;;;;;;;28.87;17.17;;;6.40;99.90;;;;;;468164;251;27501;-72
2024/03/03 06:54:26;;;;;;;34.60;19.53;;;6.50;99.90;;;;;;476938;249;28029;-72
2024/03/03 06:56:27;;;;;;;27.13;14.77;;;6.60;99.90;;;;;;468117;251;28038;-74
2024/03/03 06:58:28;;;;;;;27.07;15.83;;;6.70;99.90;;;;;;476931;249;28088;-73
2024/03/03 07:00:30;;;;;;;21.70;13.40;;;6.70;99.90;;;;;;468152;251;28502;-73
2024/03/03 07:04:32;;;;;;;25.00;15.53;;;6.60;99.90;;;;;;457878;254;28095;-74
2024/03/03 07:06:36;;;;;;;19.97;12.17;;;6.50;99.90;;;;;;476987;249;28767;-72
2024/03/03 07:08:35;;;;;;;20.87;13.07;;;6.30;99.90;;;;;;467979;251;27948;-73
2024/03/03 07:10:36;;;;;;;24.00;14.57;;;6.10;99.90;;;;;;476856;249;28027;-75
2024/03/03 07:12:37;;;;;;;33.00;19.20;;;6.20;99.90;;;;;;468136;251;28097;-73
2024/03/03 07:14:42;;;;;;;35.97;21.33;;;6.30;99.90;;;;;;476993;249;27847;-74
2024/03/03 07:16:40;;;;;;;41.00;22.87;;;6.50;99.90;;;;;;467894;254;28013;-71
2024/03/03 07:18:41;;;;;;;37.10;21.60;;;6.60;99.90;;;;;;476992;249;28452;-72
2024/03/03 07:20:42;;;;;;;41.13;23.07;;;6.70;99.90;;;;;;468124;251;28475;-73
2024/03/03 07:22:43;;;;;;;36.10;20.00;;;6.70;99.90;;;;;;476989;249;27891;-71
2024/03/03 07:24:45;;;;;;;38.20;21.83;;;6.70;99.90;;;;;;468104;251;27602;-72
2024/03/03 07:26:46;;;;;;;38.30;21.20;;;6.80;99.90;;;;;;477006;249;27913;-72
2024/03/03 07:28:47;;;;;;;46.30;23.00;;;6.80;99.90;;;;;;468136;251;27899;-73
2024/03/03 07:30:48;;;;;;;38.27;21.20;;;6.80;99.90;;;;;;477024;249;27799;-72
2024/03/03 07:32:50;;;;;;;34.80;19.60;;;6.80;99.90;;;;;;468129;251;27553;-72
2024/03/03 07:34:51;;;;;;;42.70;20.90;;;6.80;99.90;;;;;;476986;249;27833;-72
2024/03/03 07:36:52;;;;;;;36.47;20.00;;;6.80;99.90;;;;;;468135;251;28541;-73
2024/03/03 07:38:53;;;;;;;39.08;22.77;;;6.80;99.90;;;;;;477013;249;28226;-72
2024/03/03 07:40:55;;;;;;;43.00;22.13;;;6.80;99.90;;;;;;468148;251;27537;-74
2024/03/03 07:42:56;;;;;;;40.90;21.80;;;6.70;99.90;;;;;;476998;249;27782;-72
2024/03/03 07:44:57;;;;;;;41.20;23.43;;;6.70;99.90;;;;;;468146;251;27575;-74
2024/03/03 07:46:58;;;;;;;40.53;22.70;;;6.70;99.90;;;;;;477025;249;27948;-73
2024/03/03 07:49:00;;;;;;;39.58;21.87;;;6.70;99.90;;;;;;468100;251;27668;-71
2024/03/03 07:51:02;;;;;;;37.80;20.10;;;6.70;99.90;;;;;;476988;249;27931;-74
2024/03/03 07:53:02;;;;;;;40.43;21.73;;;6.60;99.90;;;;;;468021;251;30335;-73
2024/03/03 07:55:03;;;;;;;39.33;22.60;;;6.60;99.90;;;;;;476623;249;28052;-73
2024/03/03 07:57:05;;;;;;;43.03;22.70;;;6.60;99.90;;;;;;476993;249;28071;-74
2024/03/03 07:59:06;;;;;;;41.60;21.13;;;6.60;99.90;;;;;;468127;251;27795;-74
2024/03/03 08:01:07;;;;;;;39.57;23.27;;;6.70;99.90;;;;;;477005;249;27793;-72
2024/03/03 08:03:08;;;;;;;48.10;24.27;;;6.70;99.90;;;;;;468161;251;28160;-73
2024/03/03 08:05:10;;;;;;;37.40;22.47;;;6.80;99.90;;;;;;477025;249;27910;-72
2024/03/03 08:07:11;;;;;;;35.83;22.30;;;6.90;99.90;;;;;;468124;251;27921;-72
2024/03/03 08:09:12;;;;;;;34.20;19.63;;;7.00;99.90;;;;;;477006;249;28280;-73
2024/03/03 08:11:13;;;;;;;38.30;20.63;;;7.10;99.90;;;;;;468148;251;28437;-74
2024/03/03 08:13:15;;;;;;;30.67;18.53;;;7.20;99.90;;;;;;477067;249;27939;-75
2024/03/03 08:15:16;;;;;;;28.87;18.83;;;7.40;99.90;;;;;;468128;251;27995;-73
2024/03/03 08:17:17;;;;;;;28.10;16.17;;;7.60;99.90;;;;;;477006;249;28025;-74
2024/03/03 08:19:19;;;;;;;29.37;19.27;;;7.70;99.90;;;;;;468142;251;27780;-73
2024/03/03 08:21:20;;;;;;;33.10;19.03;;;7.80;99.90;;;;;;477048;249;27993;-74
2024/03/03 08:23:21;;;;;;;36.50;21.93;;;7.80;99.90;;;;;;468151;251;27823;-75
2024/03/03 08:25:24;;;;;;;35.70;21.33;;;7.80;99.90;;;;;;477013;249;27914;-73
2024/03/03 08:27:24;;;;;;;39.13;20.93;;;7.80;99.90;;;;;;468016;254;28953;-74
2024/03/03 08:29:25;;;;;;;38.13;22.67;;;8.00;99.90;;;;;;476979;249;28139;-73
2024/03/03 08:31:26;;;;;;;34.70;20.33;;;8.10;99.90;;;;;;468169;251;27413;-73
2024/03/03 08:33:27;;;;;;;41.50;22.10;;;8.10;99.90;;;;;;476999;249;27450;-74
2024/03/03 08:35:29;;;;;;;35.50;20.33;;;8.00;99.90;;;;;;468093;251;27899;-73
2024/03/03 08:37:30;;;;;;;36.20;20.93;;;7.90;99.90;;;;;;476937;249;27568;-73
2024/03/03 08:39:31;;;;;;;35.60;20.63;;;7.90;99.90;;;;;;468150;253;27829;-75
2024/03/03 08:41:37;;;;;;;31.90;21.03;;;7.80;99.90;;;;;;476985;249;27959;-73
2024/03/03 08:43:34;;;;;;;39.77;21.80;;;7.90;99.90;;;;;;467871;254;27932;-74
2024/03/03 08:45:35;;;;;;;35.70;21.73;;;7.90;99.90;;;;;;476967;249;28104;-73
2024/03/03 08:47:36;;;;;;;35.87;20.27;;;7.90;99.90;;;;;;468104;251;28330;-73
2024/03/03 08:49:37;;;;;;;36.17;21.10;;;8.00;99.90;;;;;;477007;249;27964;-74
2024/03/03 08:51:39;;;;;;;41.40;21.00;;;7.90;99.90;;;;;;468117;251;27833;-72
2024/03/03 08:53:40;;;;;;;34.03;20.23;;;7.90;99.90;;;;;;476981;249;27887;-73
2024/03/03 08:55:41;;;;;;;34.13;21.30;;;8.00;99.90;;;;;;468125;251;27931;-73
2024/03/03 08:57:42;;;;;;;39.97;21.63;;;8.10;99.90;;;;;;476983;249;27896;-73
2024/03/03 08:59:44;;;;;;;35.20;20.07;;;7.90;99.90;;;;;;467993;254;28013;-73
2024/03/03 09:01:45;;;;;;;34.00;20.10;;;8.00;99.90;;;;;;476861;249;27871;-73
2024/03/03 09:03:46;;;;;;;32.33;20.13;;;8.10;99.90;;;;;;468095;251;28539;-73
2024/03/03 09:05:47;;;;;;;38.20;21.33;;;8.30;99.90;;;;;;477030;249;28351;-75
2024/03/03 09:07:49;;;;;;;37.40;20.67;;;8.30;99.90;;;;;;468096;251;27944;-73
2024/03/03 09:09:50;;;;;;;32.73;20.00;;;8.30;99.90;;;;;;476943;249;28001;-74
2024/03/03 09:11:51;;;;;;;32.60;20.10;;;8.30;99.90;;;;;;468094;251;27992;-73
2024/03/03 09:13:52;;;;;;;36.73;19.60;;;8.30;99.90;;;;;;477002;249;28013;-73
2024/03/03 09:15:54;;;;;;;29.67;18.60;;;8.40;99.90;;;;;;468123;251;28069;-74
2024/03/03 09:17:55;;;;;;;36.30;19.30;;;8.30;99.90;;;;;;476957;249;27605;-73
2024/03/03 09:19:56;;;;;;;35.57;19.77;;;8.40;99.90;;;;;;468115;251;27944;-74
2024/03/03 09:21:57;;;;;;;34.23;18.87;;;8.60;99.90;;;;;;476988;249;29077;-73
2024/03/03 09:24:00;;;;;;;33.00;19.47;;;8.70;99.90;;;;;;468120;251;27954;-73
2024/03/03 09:26:00;;;;;;;34.57;19.47;;;8.60;99.90;;;;;;476861;249;27796;-74
2024/03/03 09:28:01;;;;;;;33.63;20.27;;;8.70;99.90;;;;;;468064;251;27523;-73
2024/03/03 09:30:03;;;;;;;26.93;17.83;;;8.70;99.90;;;;;;476942;249;27912;-73
2024/03/03 09:32:04;;;;;;;31.40;19.07;;;8.90;99.90;;;;;;468149;251;28346;-74
2024/03/03 09:34:05;;;;;;;35.33;20.00;;;8.90;99.90;;;;;;476975;249;27474;-73
2024/03/03 09:36:07;;;;;;;29.37;17.43;;;9.00;99.90;;;;;;468113;251;27973;-73
2024/03/03 09:38:08;;;;;;;32.10;19.50;;;9.00;99.90;;;;;;476927;249;28004;-73
2024/03/03 09:40:10;;;;;;;28.97;17.10;;;9.00;99.90;;;;;;468091;251;28531;-73
2024/03/03 09:42:10;;;;;;;26.60;16.97;;;9.00;99.90;;;;;;476939;249;27925;-75
2024/03/03 09:44:16;;;;;;;32.40;18.97;;;9.10;99.90;;;;;;468087;251;27917;-73
2024/03/03 09:46:12;;;;;;;30.90;18.93;;;9.30;99.90;;;;;;476704;249;28020;-73
2024/03/03 09:48:14;;;;;;;28.40;17.10;;;9.30;99.90;;;;;;468022;251;27924;-73
2024/03/03 09:50:15;;;;;;;29.87;17.77;;;9.40;99.90;;;;;;476988;249;27800;-73
2024/03/03 09:52:16;;;;;;;27.70;17.60;;;9.50;99.90;;;;;;468117;251;28056;-73
2024/03/03 09:54:21;;;;;;;25.90;16.40;;;9.60;99.90;;;;;;476991;249;27932;-73
2024/03/03 09:56:19;;;;;;;22.93;15.67;;;9.60;99.90;;;;;;467756;254;28038;-74
2024/03/03 09:58:20;;;;;;;28.07;16.40;;;9.70;99.90;;;;;;476964;249;28430;-73
2024/03/03 10:00:22;;;;;;;32.50;18.83;;;9.90;99.90;;;;;;468111;251;28317;-73
2024/03/03 10:02:23;;;;;;;31.70;19.17;;;9.90;99.90;;;;;;476970;249;27998;-73
2024/03/03 10:04:24;;;;;;;31.10;17.27;;;10.00;99.90;;;;;;468106;251;28136;-73
2024/03/03 10:06:25;;;;;;;30.97;18.83;;;10.00;99.90;;;;;;476984;249;27868;-73
2024/03/03 10:08:26;;;;;;;33.30;17.93;;;10.10;99.90;;;;;;468096;251;28295;-75
2024/03/03 10:10:31;;;;;;;31.07;17.70;;;10.10;99.90;;;;;;476971;249;28016;-74
2024/03/03 10:12:29;;;;;;;31.53;18.80;;;10.10;99.90;;;;;;467892;254;28223;-73
2024/03/03 10:14:30;;;;;;;30.30;18.50;;;10.20;99.90;;;;;;476963;249;28495;-73
2024/03/03 10:16:31;;;;;;;28.87;17.87;;;10.30;99.90;;;;;;468127;251;28616;-73
2024/03/03 10:18:33;;;;;;;23.50;15.67;;;10.30;99.90;;;;;;476961;249;28071;-74
2024/03/03 10:20:34;;;;;;;29.60;18.43;;;10.40;99.90;;;;;;468126;251;28157;-73
2024/03/03 10:22:35;;;;;;;28.93;16.40;;;10.50;99.90;;;;;;476968;249;27919;-74
2024/03/03 10:24:36;;;;;;;30.17;17.80;;;10.60;99.90;;;;;;468075;251;27910;-73